Classifiche di sempre
Migliori tempi personali validi di team tra tutti gli eventi e le stagioni. Ogni team compare una sola volta per divisione.
Cerca per nome e apri la pagina in cui è classificato questo record di divisione.
137,989 team in classifica
| Pos. | Pos. AG | Team | Nazionalità | Categoria età | TempoMiglior tempo | Distacco |
|---|---|---|---|---|---|---|
| 11201 | #3852 | Diana DEWAN & Breezy HAMILTONUSA · W 30-34 · AG #3852 | USA | W 30-34 | 1:12:48 | +19:27 |
| 11202 | #3850 | Sarah Roberts & Lauren ChestonGBR · W 30-34 · AG #3850 | GBR | W 30-34 | 1:12:48 | +19:27 |
| 11203 | #1939 | Julhyana De Freitas Ribeiro & Beatriz Birtche BandeiraBRA · W 25-29 · AG #1939 | BRA | W 25-29 | 1:12:48 | +19:27 |
| 11204 | #1941 | Jade Gracia & Solene LesbatsFRA · W 25-29 · AG #1941 | FRA | W 25-29 | 1:12:48 | +19:27 |
| 11205 | #1936 | Sommer Bexton & Lauren BurgessGBR · W 25-29 · AG #1936 | GBR | W 25-29 | 1:12:48 | +19:27 |
| 11206 | #1029 | Melissa Rodriguez medina & Dinorah berenice Tellez rodriguezMEX · W 35-39 · AG #1029 | MEX | W 35-39 | 1:12:48 | +19:27 |
| 11207 | #1030 | Andrea Vasile & Cecily ChambonFRA · W 35-39 · AG #1030 | FRA | W 35-39 | 1:12:48 | +19:27 |
| 11208 | #3847 | Claire Labas & Faustine BernardFRA · W 30-34 · AG #3847 | FRA | W 30-34 | 1:12:48 | +19:27 |
| 11209 | #1942 | Georgia Landers & Rebecca BuckleyIRL · W 25-29 · AG #1942 | IRL | W 25-29 | 1:12:48 | +19:27 |
| 11210 | #1943 | Sabrina Husmann & Marie KretschmarGER · W 25-29 · AG #1943 | GER | W 25-29 | 1:12:49 | +19:28 |
| 11211 | #855 | Diego Briseño & Kaila ParciasW 16-24 · AG #855 | -- | W 16-24 | 1:12:49 | +19:28 |
| 11212 | #1944 | Aitana Ortega & Begoña EgañaESP · W 25-29 · AG #1944 | ESP | W 25-29 | 1:12:49 | +19:28 |
| 11213 | #1945 | Christie Lewington & Nicole CartenCAN · W 25-29 · AG #1945 | CAN | W 25-29 | 1:12:49 | +19:28 |
| 11214 | #1031 | Nicole Haynes & Sarah BeerAUS · W 35-39 · AG #1031 | AUS | W 35-39 | 1:12:49 | +19:28 |
| 11215 | #1032 | Jye Yih Lee & Sara PsarrakosW 35-39 · AG #1032 | -- | W 35-39 | 1:12:49 | +19:28 |
| 11216 | #1033 | Kristen Castle & Sam KnightGBR · W 35-39 · AG #1033 | GBR | W 35-39 | 1:12:49 | +19:28 |
| 11217 | #1034 | Nacola Nerney & Caroline HealyIRL · W 35-39 · AG #1034 | IRL | W 35-39 | 1:12:49 | +19:28 |
| 11218 | #3858 | Nicola Gaffney & Jennifer DolanIRL · W 30-34 · AG #3858 | IRL | W 30-34 | 1:12:49 | +19:28 |
| 11219 | #1948 | Beth HOWARD & Chloe DOWDLEGBR · W 25-29 · AG #1948 | GBR | W 25-29 | 1:12:49 | +19:28 |
| 11220 | #3859 | Nicole Weißhaupt & Sabrina RiedenauerGER · W 30-34 · AG #3859 | GER | W 30-34 | 1:12:49 | +19:28 |
| 11221 | #3860 | Nathalie Poirier & Floriane TourenFRA · W 30-34 · AG #3860 | FRA | W 30-34 | 1:12:49 | +19:28 |
| 11222 | #1947 | Ffion Phillips & Katie JonesGBR · W 25-29 · AG #1947 | GBR | W 25-29 | 1:12:49 | +19:28 |
| 11223 | -- | 아연 황 & 혜림 황KOR · W WU29 | KOR | W WU29 | 1:12:49 | +19:28 |
| 11224 | -- | Lucy Lawson & Beth BarksGBR · W WU29 | GBR | W WU29 | 1:12:49 | +19:28 |
| 11225 | #3857 | Victoria Fearon & Cliona McbratneyGBR · W 30-34 · AG #3857 | GBR | W 30-34 | 1:12:49 | +19:28 |
Pagina 449 di 5,520